Time;durP1;ratioP1;P1;durP2;ratioP2;P2;SDS_P1;SDS_P2;PMS_P1;PMS_P2;Temp;Humidity;BMP_temperature;BMP_pressure;BME280_temperature;BME280_humidity;BME280_pressure;Samples;Min_cycle;Max_cycle;Signal;HPM_P1;HPM_P2
2023/09/27 00:00:14;;;;;;;11.00;9.50;;;;;;;12.06;100.00;100558.50;5039475;28;20182;-63
2023/09/27 00:02:42;;;;;;;11.47;10.30;;;;;;;12.21;100.00;100567.16;5050841;28;20576;-66
2023/09/27 00:05:10;;;;;;;10.67;9.77;;;;;;;12.34;100.00;100581.06;5054774;28;20252;-63
2023/09/27 00:07:37;;;;;;;10.77;9.70;;;;;;;12.34;100.00;100583.66;5053967;28;20553;-63
2023/09/27 00:10:04;;;;;;;10.23;9.33;;;;;;;12.32;100.00;100585.47;5036581;28;20193;-63
2023/09/27 00:12:30;;;;;;;10.83;9.77;;;;;;;12.26;100.00;100578.88;5064674;28;20309;-63
2023/09/27 00:14:57;;;;;;;10.47;9.53;;;;;;;12.29;100.00;100580.47;5052829;28;20273;-63
2023/09/27 00:17:22;;;;;;;11.10;9.37;;;;;;;12.33;100.00;100578.56;5051788;28;20209;-63
2023/09/27 00:19:48;;;;;;;10.63;9.57;;;;;;;12.38;100.00;100586.91;5053709;28;20180;-63
2023/09/27 00:22:13;;;;;;;10.10;9.20;;;;;;;12.39;100.00;100588.53;5075514;28;20267;-67
2023/09/27 00:24:39;;;;;;;10.53;9.40;;;;;;;12.38;100.00;100581.75;5040051;28;20360;-64
2023/09/27 00:27:05;;;;;;;11.27;10.17;;;;;;;12.32;100.00;100571.75;5034659;28;20174;-64
2023/09/27 00:29:30;;;;;;;9.80;8.97;;;;;;;12.20;100.00;100570.66;5051283;28;20644;-64
2023/09/27 00:31:55;;;;;;;10.53;9.63;;;;;;;12.17;100.00;100568.22;5049561;28;20703;-64
2023/09/27 00:34:21;;;;;;;10.43;9.43;;;;;;;12.11;100.00;100569.41;5033682;28;20291;-65
2023/09/27 00:36:46;;;;;;;9.87;8.97;;;;;;;12.15;100.00;100572.66;5038666;28;20629;-63
2023/09/27 00:39:11;;;;;;;10.63;9.63;;;;;;;12.16;100.00;100574.31;5037934;28;20692;-63
2023/09/27 00:41:36;;;;;;;9.63;8.83;;;;;;;12.12;100.00;100568.50;5031863;28;20221;-63
2023/09/27 00:44:02;;;;;;;10.53;9.47;;;;;;;12.11;100.00;100575.38;5036472;28;20245;-64
2023/09/27 00:46:27;;;;;;;11.07;9.90;;;;;;;12.02;100.00;100572.47;5034257;28;20990;-63
2023/09/27 00:48:53;;;;;;;10.57;9.57;;;;;;;12.03;100.00;100571.56;5033941;28;20200;-63
2023/09/27 00:51:18;;;;;;;10.00;9.00;;;;;;;12.04;100.00;100574.03;5033831;28;20233;-64
2023/09/27 00:53:47;;;;;;;10.77;9.77;;;;;;;12.02;100.00;100564.72;5031820;28;20230;-65
2023/09/27 00:56:13;;;;;;;11.20;10.13;;;;;;;11.82;100.00;100553.72;5033968;28;20189;-64
2023/09/27 00:58:39;;;;;;;11.33;10.33;;;;;;;11.71;100.00;100556.00;5032313;28;20187;-65
2023/09/27 01:01:04;;;;;;;10.70;9.67;;;;;;;11.61;100.00;100561.63;5031462;28;20269;-63
2023/09/27 01:03:32;;;;;;;10.83;9.70;;;;;;;11.43;100.00;100554.84;5055474;28;20190;-63
2023/09/27 01:05:58;;;;;;;12.07;10.87;;;;;;;11.46;100.00;100558.09;5043571;28;20201;-63
2023/09/27 01:08:23;;;;;;;11.83;10.63;;;;;;;11.47;100.00;100561.50;5033566;28;20280;-63
2023/09/27 01:10:49;;;;;;;12.23;10.97;;;;;;;11.51;100.00;100559.59;5029806;28;20387;-64
2023/09/27 01:13:14;;;;;;;12.80;11.57;;;;;;;11.58;100.00;100558.38;5044351;28;20194;-63
2023/09/27 01:15:41;;;;;;;11.93;10.67;;;;;;;11.58;100.00;100559.22;5043997;28;20587;-64
2023/09/27 01:18:06;;;;;;;12.80;11.70;;;;;;;11.52;100.00;100558.69;5044609;28;20181;-64
2023/09/27 01:20:35;;;;;;;12.07;10.93;;;;;;;11.56;100.00;100552.47;5043822;28;20232;-64
2023/09/27 01:23:01;;;;;;;12.43;11.40;;;;;;;11.43;100.00;100544.53;5031384;28;20296;-63
2023/09/27 01:25:31;;;;;;;12.77;11.40;;;;;;;11.41;100.00;100542.06;5049098;28;20652;-63
2023/09/27 01:28:02;;;;;;;12.40;11.23;;;;;;;11.40;100.00;100545.53;5052087;28;20239;-62
2023/09/27 01:30:32;;;;;;;12.20;10.80;;;;;;;11.49;100.00;100546.00;5026995;28;20692;-62
2023/09/27 01:33:18;;;;;;;12.97;11.67;;;;;;;11.47;100.00;100543.47;5048164;28;20292;-62
2023/09/27 01:35:44;;;;;;;12.53;11.23;;;;;;;11.52;100.00;100545.81;5048985;28;20193;-62
2023/09/27 01:38:10;;;;;;;14.50;13.10;;;;;;;11.49;100.00;100546.00;5031525;28;20166;-63
2023/09/27 01:40:41;;;;;;;14.80;13.43;;;;;;;11.52;100.00;100551.78;5024860;28;20225;-62
2023/09/27 01:43:07;;;;;;;14.73;12.70;;;;;;;11.49;100.00;100551.97;5031078;28;20232;-62
2023/09/27 01:45:32;;;;;;;19.43;16.60;;;;;;;11.45;100.00;100540.16;5033067;28;20186;-63
2023/09/27 01:47:59;;;;;;;15.57;14.07;;;;;;;11.34;100.00;100540.69;5032805;28;20185;-62
2023/09/27 01:50:25;;;;;;;16.00;14.40;;;;;;;11.23;100.00;100543.81;5010624;28;20285;-63
2023/09/27 01:52:55;;;;;;;16.23;14.73;;;;;;;11.16;100.00;100545.03;5049894;28;20554;-62
2023/09/27 01:55:22;;;;;;;17.87;14.90;;;;;;;11.29;100.00;100550.41;5050850;28;20185;-63
2023/09/27 01:57:48;;;;;;;17.43;15.93;;;;;;;11.29;100.00;100546.06;5051020;28;20606;-62
2023/09/27 02:00:15;;;;;;;16.87;15.20;;;;;;;11.28;100.00;100552.13;5042266;28;20288;-64
2023/09/27 02:02:45;;;;;;;18.53;16.83;;;;;;;11.19;100.00;100551.75;5045863;28;20181;-62
2023/09/27 02:05:11;;;;;;;18.47;16.73;;;;;;;11.14;100.00;100546.84;5044069;28;20189;-66
2023/09/27 02:07:38;;;;;;;17.60;15.73;;;;;;;11.12;100.00;100556.38;5038839;28;20204;-67
2023/09/27 02:10:05;;;;;;;20.07;17.97;;;;;;;11.04;100.00;100559.34;5041404;28;20295;-63
2023/09/27 02:12:30;;;;;;;19.97;17.97;;;;;;;10.97;100.00;100556.22;5015680;28;20367;-62
2023/09/27 02:14:55;;;;;;;20.90;18.80;;;;;;;10.96;100.00;100561.47;5052002;28;20177;-62
2023/09/27 02:17:20;;;;;;;20.67;18.27;;;;;;;11.02;100.00;100573.22;5051882;28;20883;-62
2023/09/27 02:19:46;;;;;;;19.07;17.03;;;;;;;10.99;100.00;100566.47;5051797;28;20246;-63
2023/09/27 02:22:11;;;;;;;18.80;17.00;;;;;;;11.01;100.00;100569.78;5055842;28;20274;-63
2023/09/27 02:24:36;;;;;;;21.07;18.13;;;;;;;10.96;100.00;100576.91;5042832;28;20275;-62
2023/09/27 02:27:02;;;;;;;17.87;15.93;;;;;;;10.89;100.00;100589.25;5047333;28;20188;-62
2023/09/27 02:29:27;;;;;;;16.70;15.10;;;;;;;10.89;100.00;100588.41;5051872;28;20652;-62
2023/09/27 02:31:52;;;;;;;16.90;15.40;;;;;;;10.82;100.00;100595.59;5039616;28;20378;-63
2023/09/27 02:34:18;;;;;;;16.40;14.70;;;;;;;10.76;100.00;100594.13;5014627;28;20182;-62
2023/09/27 02:36:43;;;;;;;16.83;15.07;;;;;;;10.73;100.00;100591.72;5013955;28;20198;-62
2023/09/27 02:39:10;;;;;;;15.97;14.57;;;;;;;10.70;100.00;100596.16;5031888;28;20197;-63
2023/09/27 02:41:35;;;;;;;14.67;13.27;;;;;;;10.56;100.00;100605.34;5043591;28;20255;-62
2023/09/27 02:44:00;;;;;;;20.87;15.40;;;;;;;10.64;100.00;100612.72;5027599;28;20630;-63
2023/09/27 02:46:26;;;;;;;16.97;15.10;;;;;;;10.70;100.00;100619.31;5031607;28;20182;-62
2023/09/27 02:48:52;;;;;;;16.87;14.83;;;;;;;10.39;100.00;100606.13;5031688;28;20259;-63
2023/09/27 02:51:17;;;;;;;16.57;14.93;;;;;;;10.30;100.00;100606.53;5041209;28;20233;-63
2023/09/27 02:53:44;;;;;;;15.40;14.00;;;;;;;10.34;100.00;100606.31;5051693;28;20208;-62
2023/09/27 02:56:11;;;;;;;15.17;13.67;;;;;;;10.39;100.00;100608.69;5048598;28;20197;-63
2023/09/27 02:58:36;;;;;;;15.23;13.83;;;;;;;10.45;100.00;100612.75;5039008;28;20180;-62
2023/09/27 03:01:02;;;;;;;16.57;14.83;;;;;;;10.27;100.00;100614.38;5039026;28;20569;-62
2023/09/27 03:03:27;;;;;;;17.60;15.80;;;;;;;10.22;100.00;100606.03;5049171;28;20185;-63
2023/09/27 03:05:53;;;;;;;19.17;16.07;;;;;;;10.24;100.00;100607.63;5035688;28;20186;-63
2023/09/27 03:08:18;;;;;;;18.67;16.73;;;;;;;10.09;100.00;100605.75;5042138;28;20193;-62
2023/09/27 03:10:43;;;;;;;19.97;17.87;;;;;;;10.19;100.00;100607.00;5031140;28;20252;-63
2023/09/27 03:13:09;;;;;;;19.80;17.80;;;;;;;10.30;100.00;100627.09;5014578;28;20290;-63
2023/09/27 03:15:35;;;;;;;18.77;16.97;;;;;;;10.32;100.00;100618.41;5027787;28;20171;-63
2023/09/27 03:18:02;;;;;;;18.03;16.33;;;;;;;10.41;100.00;100630.03;5037357;28;20173;-62
2023/09/27 03:20:27;;;;;;;19.57;17.50;;;;;;;10.39;100.00;100631.84;5047122;28;20248;-62
2023/09/27 03:22:52;;;;;;;20.03;18.03;;;;;;;10.39;100.00;100643.88;5036475;28;20678;-62
2023/09/27 03:25:18;;;;;;;20.27;18.27;;;;;;;10.32;100.00;100645.88;5011368;28;20189;-62
2023/09/27 03:27:43;;;;;;;18.97;17.03;;;;;;;10.32;100.00;100649.25;5019579;28;20711;-63
2023/09/27 03:30:10;;;;;;;19.37;17.50;;;;;;;10.29;100.00;100659.66;5001178;28;20194;-64
2023/09/27 03:32:36;;;;;;;19.70;17.70;;;;;;;10.26;100.00;100659.81;5048362;28;20197;-63
2023/09/27 03:35:01;;;;;;;20.60;18.47;;;;;;;10.17;100.00;100648.22;5060205;28;20181;-63
2023/09/27 03:37:27;;;;;;;22.43;19.33;;;;;;;9.99;100.00;100643.88;5062058;28;20192;-63
2023/09/27 03:39:52;;;;;;;21.73;19.03;;;;;;;9.97;100.00;100625.09;5041511;28;20231;-63
2023/09/27 03:42:21;;;;;;;20.97;18.83;;;;;;;9.91;100.00;100615.09;5059597;28;20552;-63
2023/09/27 03:44:48;;;;;;;21.67;19.47;;;;;;;9.93;100.00;100603.03;5057384;28;20185;-63
2023/09/27 03:47:14;;;;;;;20.93;18.83;;;;;;;9.85;100.00;100595.66;5052992;28;20192;-65
2023/09/27 03:49:40;;;;;;;22.87;20.40;;;;;;;9.94;100.00;100582.38;5048535;28;20555;-63
2023/09/27 03:52:06;;;;;;;24.67;22.03;;;;;;;10.04;100.00;100590.53;5030577;28;20312;-63
2023/09/27 03:54:32;;;;;;;23.97;21.57;;;;;;;10.08;100.00;100586.09;5035055;28;20188;-63
2023/09/27 03:56:57;;;;;;;24.50;21.93;;;;;;;10.09;100.00;100592.91;5034946;28;20522;-63
2023/09/27 03:59:23;;;;;;;25.30;22.70;;;;;;;10.15;100.00;100590.06;5034831;28;20193;-63
2023/09/27 04:01:48;;;;;;;23.47;20.97;;;;;;;10.24;100.00;100599.09;5037563;28;20264;-63
2023/09/27 04:04:13;;;;;;;24.10;21.77;;;;;;;10.28;100.00;100608.31;5036155;28;20281;-63
2023/09/27 04:06:38;;;;;;;24.43;21.93;;;;;;;10.24;100.00;100610.19;5033010;28;20298;-65
2023/09/27 04:09:05;;;;;;;24.07;20.40;;;;;;;10.23;100.00;100603.38;5034740;28;20178;-63
2023/09/27 04:11:31;;;;;;;25.17;20.97;;;;;;;10.24;100.00;100609.38;5042065;28;20224;-63
2023/09/27 04:13:56;;;;;;;22.47;20.27;;;;;;;10.13;100.00;100604.72;5045100;28;20251;-63
2023/09/27 04:16:21;;;;;;;22.93;20.47;;;;;;;10.17;100.00;100593.38;5042214;28;20185;-63
2023/09/27 04:18:47;;;;;;;23.73;20.93;;;;;;;10.13;100.00;100595.28;5066645;28;20274;-63
2023/09/27 04:21:12;;;;;;;24.33;21.83;;;;;;;10.09;100.00;100604.00;5043038;28;20221;-63
2023/09/27 04:23:37;;;;;;;22.93;20.53;;;;;;;10.06;100.00;100606.72;5039587;28;20174;-66
2023/09/27 04:26:06;;;;;;;23.77;20.70;;;;;;;10.09;100.00;100609.16;5034441;28;20174;-62
2023/09/27 04:28:32;;;;;;;22.87;20.43;;;;;;;10.06;100.00;100622.16;5033224;28;20224;-63
2023/09/27 04:30:58;;;;;;;22.93;20.70;;;;;;;10.07;100.00;100630.69;5018423;28;20228;-63
2023/09/27 04:33:23;;;;;;;22.00;19.77;;;;;;;9.97;100.00;100625.09;5032527;28;20198;-63
2023/09/27 04:35:48;;;;;;;24.37;21.70;;;;;;;10.05;100.00;100624.75;5034037;28;20178;-63
2023/09/27 04:38:15;;;;;;;22.80;20.60;;;;;;;10.02;100.00;100618.88;5032836;28;20197;-63
2023/09/27 04:40:40;;;;;;;25.70;22.23;;;;;;;9.97;100.00;100622.53;5028990;28;20240;-62
2023/09/27 04:43:05;;;;;;;24.73;20.93;;;;;;;9.93;100.00;100626.16;5042823;28;20182;-62
2023/09/27 04:45:31;;;;;;;24.53;21.10;;;;;;;9.90;100.00;100623.69;5033864;28;20522;-63
2023/09/27 04:47:56;;;;;;;24.47;21.97;;;;;;;9.71;100.00;100618.53;5020724;28;20495;-63
2023/09/27 04:50:22;;;;;;;25.60;21.50;;;;;;;9.64;100.00;100615.41;5026361;28;20237;-63
2023/09/27 04:52:47;;;;;;;26.10;23.20;;;;;;;9.55;100.00;100610.63;5044794;28;20645;-62
2023/09/27 04:55:13;;;;;;;23.20;20.90;;;;;;;9.50;100.00;100616.81;5032366;28;20181;-63
2023/09/27 04:57:38;;;;;;;25.10;22.07;;;;;;;9.66;100.00;100611.00;5033048;28;20178;-65
2023/09/27 05:00:06;;;;;;;26.70;21.47;;;;;;;9.62;100.00;100609.47;5024715;28;20181;-62
2023/09/27 05:02:32;;;;;;;25.43;22.80;;;;;;;9.53;100.00;100606.38;5030076;28;20527;-62
2023/09/27 05:04:57;;;;;;;25.37;22.13;;;;;;;9.49;100.00;100610.00;5032242;28;20182;-62
2023/09/27 05:07:22;;;;;;;25.17;20.60;;;;;;;9.57;100.00;100619.94;5013610;28;20183;-63
2023/09/27 05:09:48;;;;;;;24.23;21.80;;;;;;;9.62;100.00;100624.91;5033029;28;20610;-62
2023/09/27 05:12:14;;;;;;;24.93;22.33;;;;;;;9.67;100.00;100625.53;5036819;28;20229;-63
2023/09/27 05:14:41;;;;;;;26.10;23.37;;;;;;;9.69;100.00;100622.00;5015816;28;20261;-63
2023/09/27 05:17:07;;;;;;;26.83;24.03;;;;;;;9.61;100.00;100626.63;5025626;28;20189;-63
2023/09/27 05:19:32;;;;;;;25.17;22.53;;;;;;;9.62;100.00;100635.16;5033131;28;20189;-62
2023/09/27 05:21:59;;;;;;;23.83;21.50;;;;;;;9.68;100.00;100642.63;5036617;28;20339;-67
2023/09/27 05:24:24;;;;;;;23.97;21.43;;;;;;;9.70;100.00;100638.25;5033540;28;20193;-62
2023/09/27 05:26:49;;;;;;;25.07;22.37;;;;;;;9.64;100.00;100652.19;5032993;28;20645;-62
2023/09/27 05:29:15;;;;;;;24.47;21.33;;;;;;;9.71;100.00;100650.19;5019731;28;20228;-63
2023/09/27 05:31:41;;;;;;;26.23;22.00;;;;;;;9.78;100.00;100659.31;5023819;28;20229;-64
2023/09/27 05:34:07;;;;;;;26.93;24.23;;;;;;;9.59;100.00;100645.56;5022055;28;20198;-63
2023/09/27 05:36:33;;;;;;;28.57;24.73;;;;;;;9.68;100.00;100634.91;5025370;28;20596;-64
2023/09/27 05:39:00;;;;;;;26.17;23.37;;;;;;;9.79;100.00;100647.31;5041951;28;20174;-62
2023/09/27 05:41:25;;;;;;;24.00;21.63;;;;;;;9.69;100.00;100646.84;5020319;28;20685;-63
2023/09/27 05:43:50;;;;;;;25.47;22.97;;;;;;;9.90;100.00;100644.25;5016725;28;20253;-62
2023/09/27 05:46:16;;;;;;;24.83;22.33;;;;;;;9.98;100.00;100637.06;5026294;28;20190;-67
2023/09/27 05:48:41;;;;;;;29.27;23.73;;;;;;;9.93;100.00;100633.88;5032438;28;20183;-63
2023/09/27 05:51:07;;;;;;;29.87;24.53;;;;;;;9.98;100.00;100630.16;5024953;28;20231;-63
2023/09/27 05:53:33;;;;;;;29.03;23.43;;;;;;;10.08;100.00;100633.19;5021247;28;20210;-63
2023/09/27 05:56:02;;;;;;;26.53;23.77;;;;;;;10.09;100.00;100634.84;5031978;28;20585;-62
2023/09/27 05:58:29;;;;;;;25.30;22.70;;;;;;;10.02;100.00;100636.00;5021706;28;20272;-62
2023/09/27 06:00:54;;;;;;;25.97;23.27;;;;;;;9.99;100.00;100633.59;5020010;28;20305;-63
2023/09/27 06:03:20;;;;;;;24.60;22.00;;;;;;;10.14;100.00;100635.47;5036102;28;20270;-63
2023/09/27 06:05:45;;;;;;;23.73;21.30;;;;;;;10.35;100.00;100638.00;5031748;28;20186;-61
2023/09/27 06:08:11;;;;;;;25.07;22.33;;;;;;;10.40;100.00;100635.25;5021077;28;20185;-64
2023/09/27 06:10:37;;;;;;;24.43;22.03;;;;;;;10.35;100.00;100630.28;5025834;28;20695;-64
2023/09/27 06:13:03;;;;;;;27.50;24.43;;;;;;;10.49;100.00;100627.97;5041536;28;20552;-64
2023/09/27 06:15:32;;;;;;;29.27;26.03;;;;;;;10.65;100.00;100622.09;5030671;28;20182;-64
2023/09/27 06:17:58;;;;;;;28.47;25.53;;;;;;;11.06;100.00;100624.44;5030834;28;20186;-64
2023/09/27 06:20:24;;;;;;;27.50;24.60;;;;;;;11.34;100.00;100611.97;5023535;28;20294;-65
2023/09/27 06:22:52;;;;;;;30.17;24.83;;;;;;;11.83;100.00;100608.66;5039694;28;20253;-65
2023/09/27 06:25:18;;;;;;;26.33;23.60;;;;;;;12.65;100.00;100617.25;5018060;28;20190;-65
2023/09/27 06:27:43;;;;;;;21.50;19.30;;;;;;;14.04;100.00;100617.88;5031738;28;20550;-65
2023/09/27 06:30:09;;;;;;;18.67;16.23;;;;;;;15.90;100.00;100600.81;5018083;28;20488;-65
2023/09/27 06:32:35;;;;;;;15.70;14.30;;;;;;;17.46;100.00;100600.97;5027251;28;20228;-67
2023/09/27 06:35:01;;;;;;;15.50;14.00;;;;;;;17.73;100.00;100596.25;5027132;28;20182;-65
2023/09/27 06:37:27;;;;;;;15.10;13.53;;;;;;;18.16;100.00;100601.69;5030341;28;20633;-66
2023/09/27 06:39:53;;;;;;;14.10;12.67;;;;;;;19.42;100.00;100601.09;5025515;28;20178;-66
2023/09/27 06:42:19;;;;;;;14.57;13.13;;;;;;;20.28;100.00;100600.78;5028275;28;20310;-64
2023/09/27 06:44:44;;;;;;;15.23;13.83;;;;;;;21.31;100.00;100592.50;5031401;28;20182;-66
2023/09/27 06:47:09;;;;;;;13.43;12.23;;;;;;;22.11;100.00;100591.25;5031446;28;20197;-64
2023/09/27 06:49:35;;;;;;;17.97;12.67;;;;;;;20.75;100.00;100594.09;5030721;28;20266;-63
2023/09/27 06:52:00;;;;;;;17.60;12.60;;;;;;;19.64;100.00;100589.66;5034816;28;20278;-65
2023/09/27 06:54:25;;;;;;;13.53;12.13;;;;;;;20.34;100.00;100594.16;5031334;28;20181;-64
2023/09/27 06:56:51;;;;;;;13.43;11.93;;;;;;;21.45;100.00;100602.50;5031640;28;20232;-65
2023/09/27 06:59:16;;;;;;;12.20;11.10;;;;;;;22.03;99.29;100599.81;5031087;28;20204;-63
2023/09/27 07:01:41;;;;;;;12.70;10.67;;;;;;;22.16;98.21;100595.03;5035646;28;20225;-64
2023/09/27 07:04:08;;;;;;;12.27;11.23;;;;;;;22.26;95.87;100600.22;5050763;28;20645;-64
2023/09/27 07:06:33;;;;;;;13.13;10.30;;;;;;;23.65;86.52;100612.84;5048837;28;20188;-64
2023/09/27 07:08:59;;;;;;;11.68;10.07;;;;;;;24.75;75.63;100617.25;5027222;28;20261;-64
2023/09/27 07:11:24;;;;;;;11.60;10.57;;;;;;;24.70;73.67;100619.56;5036400;28;20559;-67
2023/09/27 07:13:50;;;;;;;17.27;9.52;;;;;;;24.77;70.73;100617.91;5026150;28;20206;-67
2023/09/27 07:16:20;;;;;;;16.30;9.48;;;;;;;24.88;70.51;100618.56;5046843;28;20200;-64
2023/09/27 07:18:46;;;;;;;10.40;9.00;;;;;;;24.63;73.39;100619.38;5035315;28;20174;-65
2023/09/27 07:21:11;;;;;;;11.02;9.10;;;;;;;24.16;80.76;100623.41;5029513;28;20225;-63
2023/09/27 07:23:37;;;;;;;10.80;9.52;;;;;;;24.40;79.45;100626.22;5029288;28;20201;-64
2023/09/27 07:26:04;;;;;;;9.60;8.63;;;;;;;25.51;72.00;100637.28;5030679;28;20182;-64
2023/09/27 07:28:31;;;;;;;10.18;8.52;;;;;;;26.38;62.82;100634.63;5030787;28;20186;-64
2023/09/27 07:30:56;;;;;;;8.57;7.50;;;;;;;26.27;63.99;100634.97;4996110;28;20232;-64
2023/09/27 07:33:21;;;;;;;9.60;8.25;;;;;;;26.23;63.00;100636.34;5016570;28;20205;-64
2023/09/27 07:35:51;;;;;;;9.75;8.75;;;;;;;25.92;67.62;100637.97;5030806;28;20186;-66
2023/09/27 07:38:17;;;;;;;9.75;8.77;;;;;;;24.52;81.84;100642.53;5038763;28;20182;-71
2023/09/27 07:40:46;;;;;;;13.23;9.35;;;;;;;24.08;86.49;100644.38;5038467;28;20233;-73
2023/09/27 07:43:12;;;;;;;12.57;11.32;;;;;;;23.88;87.35;100643.78;5050819;28;20248;-71
2023/09/27 07:45:41;;;;;;;19.77;17.98;;;;;;;22.59;95.93;100642.53;5039029;28;20182;-70
2023/09/27 07:48:07;;;;;;;15.95;13.32;;;;;;;22.32;99.49;100646.00;5044039;28;20634;-73
2023/09/27 07:50:37;;;;;;;17.25;14.55;;;;;;;21.11;100.00;100646.63;5032661;28;20236;-73
2023/09/27 07:53:03;;;;;;;20.77;16.05;;;;;;;20.89;100.00;100637.31;5027503;28;20186;-69
2023/09/27 07:55:32;;;;;;;17.88;16.02;;;;;;;20.53;100.00;100643.03;5046603;28;20529;-70
2023/09/27 07:57:58;;;;;;;21.00;18.50;;;;;;;20.38;100.00;100633.91;5039460;28;20185;-69
2023/09/27 08:00:30;;;;;;;20.73;18.60;;;;;;;20.04;100.00;100631.63;5030089;28;20281;-69
2023/09/27 08:02:57;;;;;;;17.97;15.80;;;;;;;20.14;100.00;100637.69;5039999;28;20182;-72
2023/09/27 08:05:23;;;;;;;18.67;16.63;;;;;;;20.18;100.00;100633.88;5021965;28;20198;-72
2023/09/27 08:07:50;;;;;;;18.60;16.57;;;;;;;20.01;100.00;100632.72;5029466;28;20191;-74
2023/09/27 08:10:17;;;;;;;17.13;15.00;;;;;;;19.23;100.00;100638.34;5025820;28;20233;-74
2023/09/27 08:12:43;;;;;;;17.37;15.67;;;;;;;18.97;100.00;100638.69;5082702;28;20192;-75
2023/09/27 08:15:09;;;;;;;17.70;16.00;;;;;;;18.90;100.00;100640.09;5050015;28;20236;-65
2023/09/27 08:17:35;;;;;;;21.43;14.77;;;;;;;18.94;100.00;100644.16;5043109;28;20637;-66
2023/09/27 08:20:05;;;;;;;17.33;14.00;;;;;;;19.06;100.00;100641.50;5041662;28;20192;-65
2023/09/27 08:22:32;;;;;;;14.73;13.33;;;;;;;19.19;100.00;100649.97;5039963;28;20236;-66
2023/09/27 08:24:57;;;;;;;14.83;13.20;;;;;;;18.96;100.00;100654.47;5072266;28;20540;-65
2023/09/27 08:27:25;;;;;;;16.10;14.53;;;;;;;18.62;100.00;100655.38;5071663;28;20176;-65
2023/09/27 08:29:50;;;;;;;18.30;13.03;;;;;;;18.34;100.00;100641.91;5066374;28;20188;-66
2023/09/27 08:32:15;;;;;;;14.80;13.30;;;;;;;18.20;100.00;100637.78;5032425;28;20601;-65
2023/09/27 08:34:40;;;;;;;14.70;13.03;;;;;;;18.06;100.00;100635.47;5034272;28;20257;-65
2023/09/27 08:37:06;;;;;;;15.50;13.83;;;;;;;17.83;100.00;100640.63;5033955;28;20239;-66
2023/09/27 08:39:31;;;;;;;13.90;12.57;;;;;;;17.99;100.00;100632.50;5045738;28;20276;-65
2023/09/27 08:41:58;;;;;;;13.50;12.20;;;;;;;18.46;100.00;100623.69;5033540;28;20286;-65
2023/09/27 08:44:24;;;;;;;13.27;11.90;;;;;;;18.87;100.00;100609.91;5044788;28;20185;-65
2023/09/27 08:46:51;;;;;;;12.73;11.53;;;;;;;18.48;100.00;100601.78;5035826;28;21495;-65
2023/09/27 08:49:17;;;;;;;15.30;13.03;;;;;;;18.37;100.00;100604.41;5033467;28;20186;-66
2023/09/27 08:51:45;;;;;;;15.37;13.83;;;;;;;17.95;100.00;100615.47;5021351;28;20253;-65
2023/09/27 08:54:12;;;;;;;16.13;14.50;;;;;;;18.51;100.00;100611.13;5031754;28;20209;-65
2023/09/27 08:56:37;;;;;;;14.70;12.93;;;;;;;19.48;100.00;100610.19;5033789;28;20269;-66
2023/09/27 08:59:03;;;;;;;12.83;11.73;;;;;;;21.55;100.00;100618.19;5027851;28;20266;-65
2023/09/27 09:01:33;;;;;;;13.43;12.23;;;;;;;23.79;98.81;100615.81;5027745;28;20328;-62
2023/09/27 09:03:59;;;;;;;12.07;10.97;;;;;;;24.92;89.87;100611.97;5059100;28;20279;-65
2023/09/27 09:06:25;;;;;;;10.82;9.88;;;;;;;26.80;77.67;100610.59;5043181;28;20230;-65
2023/09/27 09:08:50;;;;;;;13.50;10.95;;;;;;;28.25;60.97;100611.94;5056262;28;20177;-63
2023/09/27 09:11:19;;;;;;;11.40;9.77;;;;;;;29.38;52.56;100613.88;5041315;28;20308;-63
2023/09/27 09:13:55;;;;;;;10.70;9.60;;;;;;;28.85;54.98;100606.38;5051668;28;20868;-66
2023/09/27 09:16:23;;;;;;;12.68;11.38;;;;;;;29.00;55.42;100603.66;5038170;28;20849;-64
2023/09/27 09:18:51;;;;;;;10.63;9.55;;;;;;;29.19;55.14;100607.44;5043559;28;20239;-64
2023/09/27 09:21:18;;;;;;;11.98;10.88;;;;;;;28.83;54.27;100600.47;5044227;28;20293;-64
2023/09/27 09:23:48;;;;;;;11.27;9.98;;;;;;;29.63;52.14;100602.78;5053343;28;20189;-64
2023/09/27 09:26:27;;;;;;;11.32;8.98;;;;;;;31.66;44.41;100606.19;5051664;28;20230;-65
2023/09/27 09:28:56;;;;;;;10.05;9.02;;;;;;;33.68;39.17;100610.69;5063856;28;20187;-64
2023/09/27 09:31:23;;;;;;;10.02;9.05;;;;;;;33.06;39.11;100611.56;5049833;28;20601;-65
2023/09/27 09:34:05;;;;;;;13.75;9.30;;;;;;;33.13;38.55;100611.50;5062772;28;20666;-64
2023/09/27 09:36:31;;;;;;;10.75;9.60;;;;;;;31.80;42.33;100604.25;5047430;28;20655;-65
2023/09/27 09:39:05;;;;;;;11.35;10.13;;;;;;;30.71;42.91;100601.22;5067961;28;20322;-64
2023/09/27 09:41:52;;;;;;;10.48;9.48;;;;;;;29.94;47.63;100589.09;5043624;28;20599;-64
2023/09/27 09:44:21;;;;;;;10.63;9.57;;;;;;;30.75;44.79;100591.84;5053751;28;20367;-63
2023/09/27 09:46:47;;;;;;;10.82;9.93;;;;;;;30.03;45.87;100592.38;5059218;28;20185;-64
2023/09/27 09:49:15;;;;;;;15.85;11.10;;;;;;;29.95;47.32;100593.34;5047304;28;20232;-64
2023/09/27 09:51:46;;;;;;;11.50;10.30;;;;;;;29.02;54.38;100595.53;5048339;28;20229;-71
2023/09/27 09:54:16;;;;;;;13.00;10.55;;;;;;;28.33;56.42;100593.31;5042201;28;20563;-71
2023/09/27 09:56:42;;;;;;;14.40;10.05;;;;;;;28.77;58.80;100588.81;5041404;28;20189;-72
2023/09/27 09:59:11;;;;;;;13.45;10.02;;;;;;;29.63;51.41;100586.88;5048229;28;20272;-71
2023/09/27 10:01:38;;;;;;;11.27;10.07;;;;;;;30.36;49.87;100588.94;5041196;28;20754;-70
2023/09/27 10:04:05;;;;;;;12.32;10.13;;;;;;;30.00;47.88;100582.16;5059251;28;20203;-71
2023/09/27 10:06:31;;;;;;;11.95;10.68;;;;;;;28.78;54.73;100579.06;5050321;28;20181;-70
2023/09/27 10:08:58;;;;;;;11.63;10.63;;;;;;;27.86;64.84;100576.13;5048572;28;20185;-72
2023/09/27 10:11:25;;;;;;;12.48;10.05;;;;;;;28.16;66.15;100586.63;5052070;28;20228;-69
2023/09/27 10:13:51;;;;;;;11.23;10.00;;;;;;;29.93;53.84;100589.25;5057277;28;20241;-73
2023/09/27 10:16:22;;;;;;;11.82;10.30;;;;;;;30.52;49.96;100595.72;5051929;28;20213;-72
2023/09/27 10:18:47;;;;;;;10.80;9.75;;;;;;;29.08;56.22;100584.16;5052133;28;20728;-72
2023/09/27 10:21:13;;;;;;;10.38;9.45;;;;;;;28.55;61.44;100592.47;5053091;28;20333;-71
2023/09/27 10:23:52;;;;;;;10.82;9.65;;;;;;;27.92;68.24;100582.47;5054896;28;20193;-73
2023/09/27 10:26:33;;;;;;;12.20;11.13;;;;;;;26.28;77.82;100583.09;5068398;28;20183;-72
2023/09/27 10:29:02;;;;;;;13.77;10.52;;;;;;;25.55;85.42;100580.63;5063008;28;20647;-71
2023/09/27 10:31:31;;;;;;;11.82;10.63;;;;;;;24.58;91.36;100576.13;5050133;28;20248;-70
2023/09/27 10:33:56;;;;;;;13.48;11.20;;;;;;;24.30;94.55;100572.00;5043402;28;20296;-71
2023/09/27 10:36:22;;;;;;;10.70;9.30;;;;;;;24.57;97.20;100570.06;5053176;28;20241;-71
2023/09/27 10:38:50;;;;;;;11.60;10.38;;;;;;;24.18;96.51;100568.03;5056936;28;20178;-71
2023/09/27 10:41:42;;;;;;;13.32;10.30;;;;;;;23.90;98.18;100568.25;5044043;28;20229;-74
2023/09/27 10:44:07;;;;;;;10.65;9.43;;;;;;;23.63;98.92;100564.06;5045604;28;20243;-74
2023/09/27 10:46:42;;;;;;;10.60;9.40;;;;;;;22.73;100.00;100565.94;5036567;28;20182;-73
2023/09/27 10:49:08;;;;;;;11.30;10.32;;;;;;;22.37;100.00;100554.66;5044500;28;20196;-73
2023/09/27 10:51:33;;;;;;;12.05;10.85;;;;;;;22.39;100.00;100550.94;5035178;28;20217;-73
2023/09/27 10:53:59;;;;;;;11.20;10.18;;;;;;;22.47;100.00;100552.78;5060329;28;20285;-73
2023/09/27 10:56:24;;;;;;;18.33;10.43;;;;;;;22.20;100.00;100548.41;5057178;28;20651;-75
2023/09/27 10:58:50;;;;;;;12.07;10.77;;;;;;;22.12;100.00;100537.88;5051656;28;20193;-70
2023/09/27 11:01:22;;;;;;;11.80;10.57;;;;;;;21.80;100.00;100534.75;5045929;28;20416;-73
2023/09/27 11:03:48;;;;;;;13.03;10.20;;;;;;;22.07;100.00;100522.59;5047034;28;20292;-73